MSC Chiara — H3RT — position and weather

sailwx.info

Track history (hours):
 
Tides and Currents Weather Stations Pressure Air Temp Water Temp Dewpoint Dewpoint Depression Visibility Wind Speed Wind Dir Waves Ship Positions

MSC Chiara

Last reported at 2016-Apr-10 15:11 UTC. Time now 2016-May-01 15:30 UTC.
Position S 29°05' E 032°03'.
Warning: this ship's position is 21 days out of date.

Length 197 m; draft 8.9 m.

Type: Ship (hazmat cat A). MMSI: 352398000.

Date/timePositionNaut miles runAvg speedWind from/ knotsBaromVisibWave heightAir tempDewpointWater temp
2016-Apr-10 15:11S 29°05' E 032°03'913.9
2016-Apr-10 14:34S 29°11' E 031°56'1414.2
2016-Apr-10 13:33S 29°21' E 031°45'1514.9
2016-Apr-10 12:33S 29°32' E 031°33'1515.0
2016-Apr-10 11:33S 29°43' E 031°21'1514.5
2016-Apr-10 10:33S 29°50' E 031°06'5 5.0
2016-Apr-10 09:33S 29°53' E 031°01'0 0.0
2016-Apr-10 08:33S 29°53' E 031°01'0 0.0
2016-Apr-10 07:33S 29°53' E 031°01'0 0.0
2016-Apr-09 16:15S 29°53' E 031°01'0 0.0
2016-Apr-09 12:16S 29°53' E 031°01'0 0.0
2016-Apr-09 11:34S 29°53' E 031°01'0 0.0
2016-Apr-09 10:27S 29°53' E 031°01'0 0.0
2016-Apr-09 09:33S 29°53' E 031°01'0 0.0
2016-Apr-09 08:32S 29°53' E 031°01'0 0.1
2016-Apr-09 07:34S 29°53' E 031°01'0 0.3
2016-Apr-09 06:28S 29°53' E 031°01'0 0.0
2016-Apr-09 05:28S 29°53' E 031°01'0 0.0
2016-Apr-09 04:33S 29°53' E 031°01'0 0.0
2016-Apr-09 03:33S 29°53' E 031°01'0 0.0
2016-Apr-09 02:32S 29°53' E 031°01'0 0.0
2016-Apr-09 01:32S 29°53' E 031°01'0 0.0
2016-Apr-09 00:25S 29°53' E 031°01'0 0.0
2016-Apr-08 23:31S 29°53' E 031°01'0 0.0
2016-Apr-08 22:31S 29°53' E 031°01'0 0.0
2016-Apr-08 21:30S 29°53' E 031°01'0 0.0
2016-Apr-08 20:30S 29°53' E 031°01'0 0.0
2016-Apr-08 19:32S 29°53' E 031°01'0 0.0
2016-Apr-08 18:32S 29°53' E 031°01'0 0.0
2016-Apr-08 17:22S 29°53' E 031°01'0 0.0
2016-Apr-08 16:31S 29°53' E 031°01'0 0.0
2016-Apr-08 15:28S 29°53' E 031°01'0 0.0
2016-Apr-08 14:33S 29°53' E 031°01'0 0.0
2016-Apr-08 13:33S 29°53' E 031°01'0 0.0
2016-Apr-08 12:32S 29°53' E 031°01'0 0.0
2016-Apr-08 11:32S 29°53' E 031°01'0 0.0
2016-Apr-07 08:09S 29°53' E 031°01'0 0.0
2016-Apr-07 07:30S 29°53' E 031°01'0 0.0
2016-Apr-07 06:32S 29°53' E 031°01'0 0.0
2016-Apr-07 05:26S 29°53' E 031°01'0 0.0
2016-Apr-07 04:32S 29°53' E 031°01'0 0.0
2016-Apr-07 03:31S 29°53' E 031°01'0 0.0
2016-Apr-07 02:31S 29°53' E 031°01'0 0.0
2016-Apr-07 01:33S 29°53' E 031°01'0 0.0
2016-Apr-07 00:33S 29°53' E 031°01'0 0.0
2016-Apr-06 23:32S 29°53' E 031°01'0 0.0
2016-Apr-06 22:32S 29°53' E 031°01'0 0.0
2016-Apr-06 21:32S 29°53' E 031°01'0 0.0
2016-Apr-06 20:30S 29°53' E 031°01'0 0.0
2016-Apr-06 19:33S 29°53' E 031°01'0 0.0
2016-Apr-06 18:33S 29°53' E 031°01'1 1.0
2016-Apr-06 17:33S 29°52' E 031°02'5 5.2
2016-Apr-06 16:33S 29°48' E 031°06'1 1.4
2016-Apr-06 15:33S 29°48' E 031°08'2 2.1
2016-Apr-06 14:33S 29°50' E 031°10'3 2.7
2016-Apr-06 13:33S 29°49' E 031°07'0 0.2
2016-Apr-06 12:33S 29°48' E 031°07'2 2.1
2016-Apr-06 11:33S 29°50' E 031°08'3 3.4
2016-Apr-06 10:33S 29°47' E 031°07'2 1.8
2016-Apr-06 09:33S 29°46' E 031°09'6 5.8
2016-Apr-06 08:33S 29°41' E 031°13'8 8.3
2016-Apr-06 07:33S 29°34' E 031°18'7 7.3
2016-Apr-06 06:33S 29°27' E 031°20'3 2.9
2016-Apr-06 05:33S 29°30' E 031°20'3 3.0
2016-Apr-06 04:33S 29°33' E 031°20'3 2.9
2016-Apr-06 03:33S 29°36' E 031°20'3 3.1
2016-Apr-06 02:33S 29°39' E 031°19'3 3.2
2016-Apr-06 01:33S 29°42' E 031°18'2 1.6
2016-Apr-06 00:33S 29°41' E 031°19'7 6.8
2016-Apr-05 23:33S 29°34' E 031°21'6 6.2
2016-Apr-05 22:33S 29°28' E 031°22'3 2.8
2016-Apr-05 21:33S 29°30' E 031°21'3 2.8
2016-Apr-05 20:33S 29°33' E 031°20'3 2.8
2016-Apr-05 19:33S 29°36' E 031°19'3 2.7
2016-Apr-05 18:33S 29°39' E 031°19'3 2.6
2016-Apr-05 17:34S 29°41' E 031°19'7 7.3
2016-Apr-05 16:33S 29°34' E 031°21'6 6.5
2016-Apr-05 15:33S 29°27' E 031°20'1 1.0
2016-Apr-05 14:33S 29°28' E 031°19'2 1.7
2016-Apr-05 13:33S 29°30' E 031°19'2 1.8
2016-Apr-05 12:33S 29°32' E 031°19'2 2.0
2016-Apr-05 11:33S 29°34' E 031°19'2 2.4
2016-Apr-05 10:33S 29°36' E 031°20'3 2.6
2016-Apr-05 09:33S 29°39' E 031°21'1 1.4
2016-Apr-05 08:33S 29°39' E 031°22'1 1.4
2016-Apr-05 07:33S 29°40' E 031°24'1 1.0
2016-Apr-05 06:33S 29°40' E 031°25'1 0.7
2016-Apr-05 05:33S 29°40' E 031°26'0 0.4
2016-Apr-05 04:33S 29°40' E 031°26'0 0.1
2016-Apr-05 03:33S 29°40' E 031°26'0 0.3
2016-Apr-05 02:33S 29°40' E 031°26'0 0.2
2016-Apr-05 01:33S 29°40' E 031°27'0 0.2
2016-Apr-05 00:34S 29°40' E 031°27'2 1.6
2016-Apr-04 23:34S 29°38' E 031°27'2 1.8
2016-Apr-04 22:34S 29°37' E 031°28'2 2.3
2016-Apr-04 21:33S 29°35' E 031°29'3 2.6
2016-Apr-04 20:33S 29°32' E 031°31'3 2.8
2016-Apr-04 19:33S 29°30' E 031°32'3 2.8
2016-Apr-04 18:33S 29°27' E 031°33'3 2.7
2016-Apr-04 17:33S 29°25' E 031°35'8 7.7
2016-Apr-04 16:33S 29°30' E 031°28'9 8.9
2016-Apr-04 15:33S 29°36' E 031°21'9 8.7
2016-Apr-04 14:34S 29°42' E 031°14'  
Track history (hours):
 
Tides and Currents Weather Stations Pressure Air Temp Water Temp Dewpoint Dewpoint Depression Visibility Wind Speed Wind Dir Waves Ship Positions

MSC Chiara

Last reported at 2016-Apr-10 15:11 UTC. Time now 2016-May-01 15:30 UTC.
Position S 29°05' E 032°03'.
Warning: this ship's position is 21 days out of date.

Length 197 m; draft 8.9 m.

Type: Ship (hazmat cat A). MMSI: 352398000.

Date/timePositionNaut miles runAvg speedWind from/ knotsBaromVisibWave heightAir tempDewpointWater temp
2016-Apr-10 15:11S 29°05' E 032°03'913.9
2016-Apr-10 14:34S 29°11' E 031°56'1414.2
2016-Apr-10 13:33S 29°21' E 031°45'1514.9
2016-Apr-10 12:33S 29°32' E 031°33'1515.0
2016-Apr-10 11:33S 29°43' E 031°21'1514.5
2016-Apr-10 10:33S 29°50' E 031°06'5 5.0
2016-Apr-10 09:33S 29°53' E 031°01'0 0.0
2016-Apr-10 08:33S 29°53' E 031°01'0 0.0
2016-Apr-10 07:33S 29°53' E 031°01'0 0.0
2016-Apr-09 16:15S 29°53' E 031°01'0 0.0
2016-Apr-09 12:16S 29°53' E 031°01'0 0.0
2016-Apr-09 11:34S 29°53' E 031°01'0 0.0
2016-Apr-09 10:27S 29°53' E 031°01'0 0.0
2016-Apr-09 09:33S 29°53' E 031°01'0 0.0
2016-Apr-09 08:32S 29°53' E 031°01'0 0.1
2016-Apr-09 07:34S 29°53' E 031°01'0 0.3
2016-Apr-09 06:28S 29°53' E 031°01'0 0.0
2016-Apr-09 05:28S 29°53' E 031°01'0 0.0
2016-Apr-09 04:33S 29°53' E 031°01'0 0.0
2016-Apr-09 03:33S 29°53' E 031°01'0 0.0
2016-Apr-09 02:32S 29°53' E 031°01'0 0.0
2016-Apr-09 01:32S 29°53' E 031°01'0 0.0
2016-Apr-09 00:25S 29°53' E 031°01'0 0.0
2016-Apr-08 23:31S 29°53' E 031°01'0 0.0
2016-Apr-08 22:31S 29°53' E 031°01'0 0.0
2016-Apr-08 21:30S 29°53' E 031°01'0 0.0
2016-Apr-08 20:30S 29°53' E 031°01'0 0.0
2016-Apr-08 19:32S 29°53' E 031°01'0 0.0
2016-Apr-08 18:32S 29°53' E 031°01'0 0.0
2016-Apr-08 17:22S 29°53' E 031°01'0 0.0
2016-Apr-08 16:31S 29°53' E 031°01'0 0.0
2016-Apr-08 15:28S 29°53' E 031°01'0 0.0
2016-Apr-08 14:33S 29°53' E 031°01'0 0.0
2016-Apr-08 13:33S 29°53' E 031°01'0 0.0
2016-Apr-08 12:32S 29°53' E 031°01'0 0.0
2016-Apr-08 11:32S 29°53' E 031°01'0 0.0
2016-Apr-07 08:09S 29°53' E 031°01'0 0.0
2016-Apr-07 07:30S 29°53' E 031°01'0 0.0
2016-Apr-07 06:32S 29°53' E 031°01'0 0.0
2016-Apr-07 05:26S 29°53' E 031°01'0 0.0
2016-Apr-07 04:32S 29°53' E 031°01'0 0.0
2016-Apr-07 03:31S 29°53' E 031°01'0 0.0
2016-Apr-07 02:31S 29°53' E 031°01'0 0.0
2016-Apr-07 01:33S 29°53' E 031°01'0 0.0
2016-Apr-07 00:33S 29°53' E 031°01'0 0.0
2016-Apr-06 23:32S 29°53' E 031°01'0 0.0
2016-Apr-06 22:32S 29°53' E 031°01'0 0.0
2016-Apr-06 21:32S 29°53' E 031°01'0 0.0
2016-Apr-06 20:30S 29°53' E 031°01'0 0.0
2016-Apr-06 19:33S 29°53' E 031°01'0 0.0
2016-Apr-06 18:33S 29°53' E 031°01'1 1.0
2016-Apr-06 17:33S 29°52' E 031°02'5 5.2
2016-Apr-06 16:33S 29°48' E 031°06'1 1.4
2016-Apr-06 15:33S 29°48' E 031°08'2 2.1
2016-Apr-06 14:33S 29°50' E 031°10'3 2.7
2016-Apr-06 13:33S 29°49' E 031°07'0 0.2
2016-Apr-06 12:33S 29°48' E 031°07'2 2.1
2016-Apr-06 11:33S 29°50' E 031°08'3 3.4
2016-Apr-06 10:33S 29°47' E 031°07'2 1.8
2016-Apr-06 09:33S 29°46' E 031°09'6 5.8
2016-Apr-06 08:33S 29°41' E 031°13'8 8.3
2016-Apr-06 07:33S 29°34' E 031°18'7 7.3
2016-Apr-06 06:33S 29°27' E 031°20'3 2.9
2016-Apr-06 05:33S 29°30' E 031°20'3 3.0
2016-Apr-06 04:33S 29°33' E 031°20'3 2.9
2016-Apr-06 03:33S 29°36' E 031°20'3 3.1
2016-Apr-06 02:33S 29°39' E 031°19'3 3.2
2016-Apr-06 01:33S 29°42' E 031°18'2 1.6
2016-Apr-06 00:33S 29°41' E 031°19'7 6.8
2016-Apr-05 23:33S 29°34' E 031°21'6 6.2
2016-Apr-05 22:33S 29°28' E 031°22'3 2.8
2016-Apr-05 21:33S 29°30' E 031°21'3 2.8
2016-Apr-05 20:33S 29°33' E 031°20'3 2.8
2016-Apr-05 19:33S 29°36' E 031°19'3 2.7
2016-Apr-05 18:33S 29°39' E 031°19'3 2.6
2016-Apr-05 17:34S 29°41' E 031°19'7 7.3
2016-Apr-05 16:33S 29°34' E 031°21'6 6.5
2016-Apr-05 15:33S 29°27' E 031°20'1 1.0
2016-Apr-05 14:33S 29°28' E 031°19'2 1.7
2016-Apr-05 13:33S 29°30' E 031°19'2 1.8
2016-Apr-05 12:33S 29°32' E 031°19'2 2.0
2016-Apr-05 11:33S 29°34' E 031°19'2 2.4
2016-Apr-05 10:33S 29°36' E 031°20'3 2.6
2016-Apr-05 09:33S 29°39' E 031°21'1 1.4
2016-Apr-05 08:33S 29°39' E 031°22'1 1.4
2016-Apr-05 07:33S 29°40' E 031°24'1 1.0
2016-Apr-05 06:33S 29°40' E 031°25'1 0.7
2016-Apr-05 05:33S 29°40' E 031°26'0 0.4
2016-Apr-05 04:33S 29°40' E 031°26'0 0.1
2016-Apr-05 03:33S 29°40' E 031°26'0 0.3
2016-Apr-05 02:33S 29°40' E 031°26'0 0.2
2016-Apr-05 01:33S 29°40' E 031°27'0 0.2
2016-Apr-05 00:34S 29°40' E 031°27'2 1.6
2016-Apr-04 23:34S 29°38' E 031°27'2 1.8
2016-Apr-04 22:34S 29°37' E 031°28'2 2.3
2016-Apr-04 21:33S 29°35' E 031°29'3 2.6
2016-Apr-04 20:33S 29°32' E 031°31'3 2.8
2016-Apr-04 19:33S 29°30' E 031°32'3 2.8
2016-Apr-04 18:33S 29°27' E 031°33'3 2.7
2016-Apr-04 17:33S 29°25' E 031°35'8 7.7
2016-Apr-04 16:33S 29°30' E 031°28'9 8.9
2016-Apr-04 15:33S 29°36' E 031°21'9 8.7
2016-Apr-04 14:34S 29°42' E 031°14'  

Dump ship's entire track history